createdAt,value
2022-11-16T00:00:47.934Z,98050.03
2022-11-16T00:01:50.228Z,98057.34
2022-11-16T00:02:52.555Z,98064.53
2022-11-16T00:03:56.849Z,98056.00
2022-11-16T00:04:59.023Z,98050.09
2022-11-16T00:06:04.217Z,98052.22
2022-11-16T00:07:07.152Z,98054.75
2022-11-16T00:08:09.350Z,98048.78
2022-11-16T00:09:23.846Z,98054.56
2022-11-16T00:10:26.035Z,98050.72
2022-11-16T00:11:28.211Z,98046.72
2022-11-16T00:12:30.465Z,98047.66
2022-11-16T00:13:34.185Z,98046.81
2022-11-16T00:14:36.697Z,98048.56
2022-11-16T00:15:38.878Z,98049.81
2022-11-16T00:16:41.177Z,98055.06
2022-11-16T00:17:43.434Z,98056.56
2022-11-16T00:18:45.578Z,98052.44
2022-11-16T00:19:47.801Z,98044.34
2022-11-16T00:20:50.660Z,98042.00
2022-11-16T00:21:53.693Z,98042.84
2022-11-16T00:22:55.859Z,98048.09
2022-11-16T00:23:58.139Z,98041.94
2022-11-16T00:25:00.363Z,98036.53
2022-11-16T00:26:04.838Z,98035.84
2022-11-16T00:27:07.014Z,98028.16
2022-11-16T00:28:09.994Z,98020.56
2022-11-16T00:29:17.095Z,98025.22
2022-11-16T00:30:19.660Z,98014.50
2022-11-16T00:31:23.254Z,98025.41
2022-11-16T00:32:25.922Z,98020.91
2022-11-16T00:33:28.388Z,98020.19
2022-11-16T00:34:30.600Z,98022.28
2022-11-16T00:35:37.381Z,98016.47
2022-11-16T00:36:39.622Z,98018.63
2022-11-16T00:37:41.935Z,98022.16
2022-11-16T00:38:44.113Z,98014.38
2022-11-16T00:39:48.728Z,98019.72
2022-11-16T00:40:50.940Z,98012.78
2022-11-16T00:41:53.218Z,97998.84
2022-11-16T00:42:55.416Z,98003.31
2022-11-16T00:43:57.694Z,98005.22
2022-11-16T00:44:59.825Z,98005.22
2022-11-16T00:46:02.756Z,98013.38
2022-11-16T00:47:05.180Z,98012.16
2022-11-16T00:48:07.317Z,98005.22
2022-11-16T00:49:10.240Z,98010.16
2022-11-16T00:50:12.739Z,98009.53
2022-11-16T00:51:14.928Z,97999.50
2022-11-16T00:52:17.642Z,98007.75
2022-11-16T00:53:20.897Z,98001.09
2022-11-16T00:54:23.360Z,97997.47
2022-11-16T00:55:25.793Z,97990.09
2022-11-16T00:56:28.141Z,98002.06
2022-11-16T00:57:30.488Z,98003.56
2022-11-16T00:58:32.969Z,98000.00
2022-11-16T00:59:40.238Z,97999.09
2022-11-16T01:00:43.166Z,98005.56
2022-11-16T01:01:45.576Z,97998.63
2022-11-16T01:02:47.822Z,98001.22
2022-11-16T01:03:50.078Z,97998.22
2022-11-16T01:04:52.292Z,97988.53
2022-11-16T01:06:00.470Z,97991.16
2022-11-16T01:07:02.695Z,97987.72
2022-11-16T01:08:05.188Z,97995.59
2022-11-16T01:09:07.385Z,97988.94
2022-11-16T01:10:12.740Z,97999.53
2022-11-16T01:11:37.578Z,97997.19
2022-11-16T01:12:40.345Z,98005.84
2022-11-16T01:13:42.545Z,98004.69
2022-11-16T01:14:46.781Z,98001.41
2022-11-16T01:15:49.025Z,98005.44
2022-11-16T01:16:51.258Z,98008.72
2022-11-16T01:17:55.563Z,98007.59
2022-11-16T01:18:57.851Z,98006.97
2022-11-16T01:20:00.846Z,98003.50
2022-11-16T01:21:06.396Z,98006.03
2022-11-16T01:22:08.819Z,98003.75
2022-11-16T01:23:10.963Z,98008.16
2022-11-16T01:24:13.233Z,98003.41
2022-11-16T01:25:15.988Z,98012.41
2022-11-16T01:26:18.370Z,98013.84
2022-11-16T01:27:21.140Z,98003.59
2022-11-16T01:28:23.369Z,98009.16
2022-11-16T01:29:29.087Z,98006.34
2022-11-16T01:30:34.251Z,98012.69
2022-11-16T01:31:43.187Z,98014.09
2022-11-16T01:32:45.412Z,98004.94
2022-11-16T01:33:48.222Z,98012.41
2022-11-16T01:34:57.701Z,98006.31
2022-11-16T01:36:14.528Z,98001.34
2022-11-16T01:37:18.081Z,98007.84
2022-11-16T01:38:20.656Z,98005.50
2022-11-16T01:39:23.229Z,98002.66
2022-11-16T01:40:29.797Z,98009.22
2022-11-16T01:41:32.267Z,98006.13
2022-11-16T01:42:37.823Z,97993.69
2022-11-16T01:44:14.711Z,97993.84
2022-11-16T01:45:46.366Z,97991.81
2022-11-16T01:46:49.929Z,97997.81
2022-11-16T01:47:53.984Z,97990.22
2022-11-16T01:49:05.435Z,98001.47
2022-11-16T01:50:12.006Z,97989.19
2022-11-16T01:51:17.092Z,97987.41
2022-11-16T01:52:23.019Z,97990.03
2022-11-16T01:53:25.824Z,97977.00
2022-11-16T01:54:34.945Z,97983.94
2022-11-16T01:55:37.324Z,97983.13
2022-11-16T01:57:11.922Z,97983.13
2022-11-16T01:58:23.121Z,97978.34
2022-11-16T01:59:32.043Z,97985.44
2022-11-16T02:01:40.053Z,97984.94
2022-11-16T02:02:42.904Z,97974.28
2022-11-16T02:03:55.488Z,97972.69
2022-11-16T02:04:59.487Z,97965.09
2022-11-16T02:06:27.591Z,97967.16
2022-11-16T02:08:11.583Z,97973.25
2022-11-16T02:09:51.661Z,97968.09
2022-11-16T02:10:56.747Z,97964.38
2022-11-16T02:12:28.960Z,97957.13
2022-11-16T02:13:46.114Z,97962.03
2022-11-16T02:14:56.494Z,97959.41
2022-11-16T02:15:59.579Z,97960.59
2022-11-16T02:17:35.379Z,97961.56
2022-11-16T02:19:02.219Z,97960.34
2022-11-16T02:20:24.403Z,97961.00
2022-11-16T02:21:44.805Z,97957.81
2022-11-16T02:23:04.278Z,97959.28
2022-11-16T02:24:38.867Z,97954.72
2022-11-16T02:26:01.738Z,97963.63
2022-11-16T02:27:34.654Z,97947.31
2022-11-16T02:29:13.074Z,97963.41
2022-11-16T02:30:17.728Z,97958.84
2022-11-16T02:31:27.249Z,97951.53
2022-11-16T02:32:37.512Z,97948.81
2022-11-16T02:33:41.847Z,97944.38
2022-11-16T02:34:52.821Z,97956.38
2022-11-16T02:36:00.157Z,97945.69
2022-11-16T02:37:06.541Z,97941.31
2022-11-16T02:38:17.193Z,97953.47
2022-11-16T02:39:24.510Z,97953.94
2022-11-16T02:40:31.447Z,97941.75
2022-11-16T02:41:37.985Z,97949.53
2022-11-16T02:42:45.640Z,97960.03
2022-11-16T02:43:55.303Z,97954.03
2022-11-16T02:45:02.133Z,97950.66
2022-11-16T02:46:08.765Z,97950.00
2022-11-16T02:47:16.709Z,97947.00
2022-11-16T02:48:27.102Z,97952.56
2022-11-16T02:49:33.162Z,97942.06
2022-11-16T02:50:36.843Z,97942.78
2022-11-16T02:51:40.050Z,97945.41
2022-11-16T02:52:42.409Z,97943.25
2022-11-16T02:54:08.621Z,97948.22
2022-11-16T02:55:13.649Z,97948.50
2022-11-16T02:56:19.638Z,97948.25
2022-11-16T02:57:45.323Z,97958.09
2022-11-16T02:58:48.989Z,97963.69
2022-11-16T02:59:56.456Z,97972.28
2022-11-16T03:01:03.120Z,97976.81
2022-11-16T03:02:30.247Z,97990.38
2022-11-16T03:03:51.217Z,97980.16
2022-11-16T03:05:13.617Z,97982.16
2022-11-16T03:06:28.949Z,97975.03
2022-11-16T03:07:42.297Z,97988.97
2022-11-16T03:08:49.123Z,97979.91
2022-11-16T03:09:54.769Z,97985.34
2022-11-16T03:11:23.052Z,97985.91
2022-11-16T03:12:30.930Z,97978.41
2022-11-16T03:13:37.017Z,97982.63
2022-11-16T03:14:49.131Z,97974.50
2022-11-16T03:15:55.679Z,97970.63
2022-11-16T03:17:00.428Z,97978.41
2022-11-16T03:18:07.880Z,97969.22
2022-11-16T03:19:12.986Z,97973.44
2022-11-16T03:20:20.657Z,97966.25
2022-11-16T03:22:01.927Z,97963.91
2022-11-16T03:23:10.106Z,97957.25
2022-11-16T03:24:14.003Z,97964.25
2022-11-16T03:25:19.263Z,97961.28
2022-11-16T03:26:31.926Z,97963.63
2022-11-16T03:27:57.020Z,97960.78
2022-11-16T03:29:22.506Z,97963.50
2022-11-16T03:30:30.252Z,97967.75
2022-11-16T03:31:46.036Z,97969.44
2022-11-16T03:33:19.283Z,97962.38
2022-11-16T03:34:29.038Z,97958.09
2022-11-16T03:35:38.531Z,97957.44
2022-11-16T03:36:44.702Z,97947.69
2022-11-16T03:37:48.931Z,97942.28
2022-11-16T03:38:52.838Z,97944.81
2022-11-16T03:39:58.691Z,97941.44
2022-11-16T03:41:06.109Z,97947.97
2022-11-16T03:42:13.940Z,97957.03
2022-11-16T03:43:19.934Z,97957.63
2022-11-16T03:44:22.694Z,97951.97
2022-11-16T03:45:24.992Z,97952.75
2022-11-16T03:46:29.073Z,97954.78
2022-11-16T03:47:31.332Z,97959.16
2022-11-16T03:48:38.543Z,97952.34
2022-11-16T03:49:48.149Z,97955.28
2022-11-16T03:50:53.174Z,97968.84
2022-11-16T03:51:56.274Z,97961.63
2022-11-16T03:52:58.849Z,97955.09
2022-11-16T03:54:01.188Z,97958.16
2022-11-16T03:55:04.910Z,97952.47
2022-11-16T03:56:07.454Z,97944.78
2022-11-16T03:57:15.383Z,97939.81
2022-11-16T03:58:20.269Z,97943.47
2022-11-16T03:59:23.041Z,97947.59
2022-11-16T04:00:25.387Z,97949.34
2022-11-16T04:01:28.627Z,97957.03
2022-11-16T04:02:30.844Z,97954.41
2022-11-16T04:03:34.199Z,97945.13
2022-11-16T04:04:55.123Z,97952.16
2022-11-16T04:06:17.224Z,97945.41
2022-11-16T04:07:38.167Z,97948.81
2022-11-16T04:08:58.907Z,97944.88
2022-11-16T04:10:20.154Z,97945.28
2022-11-16T04:11:41.755Z,97945.63
2022-11-16T04:13:04.330Z,97944.09
2022-11-16T04:14:38.101Z,97943.94
2022-11-16T04:16:01.023Z,97929.19
2022-11-16T04:17:21.844Z,97928.66
2022-11-16T04:18:43.430Z,97933.78
2022-11-16T04:20:09.516Z,97936.31
2022-11-16T04:21:47.012Z,97936.31
2022-11-16T04:23:14.846Z,97937.78
2022-11-16T04:24:20.404Z,97943.13
2022-11-16T04:25:27.196Z,97948.00
2022-11-16T04:26:48.052Z,97938.72
2022-11-16T04:28:09.472Z,97953.22
2022-11-16T04:29:13.381Z,97948.31
2022-11-16T04:30:15.997Z,97954.31
2022-11-16T04:31:36.994Z,97949.59
2022-11-16T04:33:02.086Z,97949.44
2022-11-16T04:34:23.159Z,97945.88
2022-11-16T04:35:47.430Z,97955.91
2022-11-16T04:37:08.599Z,97949.94
2022-11-16T04:38:11.129Z,97953.84
2022-11-16T04:39:14.364Z,97949.44
2022-11-16T04:40:17.547Z,97953.38
2022-11-16T04:41:38.335Z,97952.84
2022-11-16T04:42:40.587Z,97950.47
2022-11-16T04:43:44.333Z,97950.47
2022-11-16T04:45:05.154Z,97950.75
2022-11-16T04:46:31.824Z,97950.22
2022-11-16T04:47:34.255Z,97954.59
2022-11-16T04:48:37.780Z,97950.78
2022-11-16T04:49:40.036Z,97947.56
2022-11-16T04:50:43.603Z,97948.09
2022-11-16T04:51:45.993Z,97943.88
2022-11-16T04:52:48.212Z,97945.53
2022-11-16T04:53:51.536Z,97949.56
2022-11-16T04:54:57.997Z,97944.22
2022-11-16T04:56:01.600Z,97937.16
2022-11-16T04:57:06.169Z,97944.09
2022-11-16T04:58:08.531Z,97941.25
2022-11-16T04:59:10.807Z,97934.28
2022-11-16T05:00:13.458Z,97939.50
2022-11-16T05:01:15.941Z,97939.84
2022-11-16T05:02:18.661Z,97939.00
2022-11-16T05:03:26.274Z,97938.25
2022-11-16T05:04:28.492Z,97946.97
2022-11-16T05:05:30.750Z,97942.94
2022-11-16T05:06:34.627Z,97942.16
2022-11-16T05:07:37.024Z,97946.63
2022-11-16T05:08:46.216Z,97951.41
2022-11-16T05:09:49.191Z,97946.72
2022-11-16T05:10:52.059Z,97941.84
2022-11-16T05:11:54.871Z,97950.06
2022-11-16T05:12:57.671Z,97948.97
2022-11-16T05:14:01.753Z,97947.44
2022-11-16T05:15:05.087Z,97943.00
2022-11-16T05:16:08.740Z,97931.81
2022-11-16T05:17:11.169Z,97948.78
2022-11-16T05:18:13.394Z,97940.53
2022-11-16T05:19:34.158Z,97940.25
2022-11-16T05:20:55.276Z,97941.13
2022-11-16T05:21:57.979Z,97938.50
2022-11-16T05:23:00.268Z,97939.88
2022-11-16T05:24:31.033Z,97932.84
2022-11-16T05:25:36.653Z,97946.06
2022-11-16T05:26:41.642Z,97943.53
2022-11-16T05:27:43.811Z,97942.03
2022-11-16T05:28:46.366Z,97945.50
2022-11-16T05:29:49.679Z,97944.47
2022-11-16T05:30:54.304Z,97945.88
2022-11-16T05:32:00.261Z,97945.16
2022-11-16T05:33:02.765Z,97953.50
2022-11-16T05:34:10.339Z,97955.47
2022-11-16T05:35:13.114Z,97955.47
2022-11-16T05:36:15.635Z,97959.84
2022-11-16T05:37:19.065Z,97958.00
2022-11-16T05:38:22.070Z,97969.53
2022-11-16T05:39:28.674Z,97965.09
2022-11-16T05:40:32.841Z,97969.56
2022-11-16T05:41:35.964Z,97969.97
2022-11-16T05:42:38.811Z,97968.75
2022-11-16T05:43:41.118Z,97970.44
2022-11-16T05:44:51.773Z,97964.41
2022-11-16T05:45:54.060Z,97968.31
2022-11-16T05:46:56.884Z,97969.56
2022-11-16T05:47:59.207Z,97964.72
2022-11-16T05:49:02.013Z,97969.50
2022-11-16T05:50:04.471Z,97973.69
2022-11-16T05:51:12.281Z,97974.38
2022-11-16T05:52:14.489Z,97967.16
2022-11-16T05:53:18.928Z,97969.59
2022-11-16T05:54:27.194Z,97961.91
2022-11-16T05:55:30.303Z,97973.19
2022-11-16T05:56:34.099Z,97975.97
2022-11-16T05:57:36.947Z,97976.81
2022-11-16T05:58:39.123Z,97979.16
2022-11-16T05:59:41.655Z,97978.41
2022-11-16T06:00:46.352Z,97982.53
2022-11-16T06:01:49.896Z,97987.66
2022-11-16T06:02:52.304Z,97984.94
2022-11-16T06:04:00.572Z,97979.31
2022-11-16T06:05:03.965Z,97985.69
2022-11-16T06:06:06.670Z,97988.69
2022-11-16T06:07:10.134Z,97988.69
2022-11-16T06:08:12.647Z,97991.97
2022-11-16T06:09:15.014Z,97998.06
2022-11-16T06:10:17.206Z,97996.19
2022-11-16T06:11:23.012Z,97990.94
2022-11-16T06:12:25.224Z,97996.25
2022-11-16T06:13:27.521Z,97997.59
2022-11-16T06:14:32.966Z,97996.00
2022-11-16T06:15:38.115Z,97998.16
2022-11-16T06:16:40.556Z,97993.16
2022-11-16T06:17:45.027Z,97997.28
2022-11-16T06:18:48.386Z,97996.00
2022-11-16T06:19:51.616Z,97996.75
2022-11-16T06:20:53.930Z,97994.69
2022-11-16T06:21:56.911Z,97992.81
2022-11-16T06:23:00.588Z,97996.84
2022-11-16T06:24:08.730Z,97993.19
2022-11-16T06:25:11.804Z,97999.13
2022-11-16T06:26:17.733Z,97994.91
2022-11-16T06:27:21.162Z,97997.63
2022-11-16T06:28:23.712Z,98000.88
2022-11-16T06:29:25.972Z,98002.31
2022-11-16T06:30:28.999Z,98007.03
2022-11-16T06:31:31.547Z,98021.78
2022-11-16T06:32:36.348Z,98010.53
2022-11-16T06:33:39.802Z,98010.06
2022-11-16T06:34:48.579Z,98019.94
2022-11-16T06:35:51.197Z,98012.25
2022-11-16T06:36:56.793Z,98017.41
2022-11-16T06:37:59.218Z,98015.88
2022-11-16T06:39:02.269Z,98016.44
2022-11-16T06:40:07.843Z,98014.34
2022-11-16T06:41:12.826Z,98018.34
2022-11-16T06:42:19.801Z,98016.41
2022-11-16T06:43:22.572Z,98023.41
2022-11-16T06:44:25.483Z,98027.84
2022-11-16T06:45:33.012Z,98020.78
2022-11-16T06:46:36.573Z,98027.75
2022-11-16T06:47:39.447Z,98030.38
2022-11-16T06:48:42.272Z,98023.91
2022-11-16T06:49:47.910Z,98028.69
2022-11-16T06:50:55.826Z,98033.09
2022-11-16T06:51:58.197Z,98028.78
2022-11-16T06:53:01.238Z,98029.53
2022-11-16T06:54:04.850Z,98037.69
2022-11-16T06:55:07.387Z,98039.22
2022-11-16T06:56:14.143Z,98039.75
2022-11-16T06:57:21.485Z,98043.56
2022-11-16T06:58:23.737Z,98034.69
2022-11-16T06:59:25.921Z,98033.56
2022-11-16T07:00:28.152Z,98033.47
2022-11-16T07:01:31.533Z,98042.25
2022-11-16T07:02:40.262Z,98041.78
2022-11-16T07:03:46.439Z,98038.19
2022-11-16T07:04:49.208Z,98042.41
2022-11-16T07:05:51.740Z,98043.78
2022-11-16T07:06:55.136Z,98044.72
2022-11-16T07:07:57.991Z,98046.22
2022-11-16T07:09:00.759Z,98047.72
2022-11-16T07:10:06.517Z,98042.06
2022-11-16T07:11:09.866Z,98050.50
2022-11-16T07:12:12.009Z,98046.75
2022-11-16T07:13:15.753Z,98048.00
2022-11-16T07:14:18.719Z,98051.00
2022-11-16T07:15:21.278Z,98048.38
2022-11-16T07:16:24.197Z,98047.25
2022-11-16T07:17:33.024Z,98053.34
2022-11-16T07:18:37.406Z,98055.53
2022-11-16T07:19:40.455Z,98053.25
2022-11-16T07:20:43.058Z,98058.97
2022-11-16T07:21:45.255Z,98058.22
2022-11-16T07:22:52.482Z,98056.72
2022-11-16T07:23:54.940Z,98058.97
2022-11-16T07:24:58.039Z,98061.59
2022-11-16T07:26:06.062Z,98061.66
2022-11-16T07:27:16.368Z,98065.25
2022-11-16T07:28:21.522Z,98070.47
2022-11-16T07:29:24.453Z,98066.28
2022-11-16T07:30:48.066Z,98064.97
2022-11-16T07:31:56.314Z,98066.91
2022-11-16T07:33:10.331Z,98062.22
2022-11-16T07:34:31.139Z,98066.84
2022-11-16T07:35:46.462Z,98059.00
2022-11-16T07:36:48.643Z,98072.66
2022-11-16T07:37:52.308Z,98067.97
2022-11-16T07:38:56.530Z,98075.28
2022-11-16T07:39:59.741Z,98074.72
2022-11-16T07:41:03.578Z,98084.94
2022-11-16T07:42:11.617Z,98077.19
2022-11-16T07:43:40.500Z,98086.56
2022-11-16T07:44:47.612Z,98084.31
2022-11-16T07:45:52.332Z,98080.19
2022-11-16T07:46:55.138Z,98092.09
2022-11-16T07:47:58.114Z,98086.31
2022-11-16T07:49:20.317Z,98088.81
2022-11-16T07:50:29.471Z,98094.56
2022-11-16T07:51:32.191Z,98093.88
2022-11-16T07:52:47.586Z,98092.66
2022-11-16T07:53:56.916Z,98093.25
2022-11-16T07:54:59.082Z,98095.97
2022-11-16T07:56:04.083Z,98092.38
2022-11-16T07:57:08.596Z,98081.47
2022-11-16T07:58:10.915Z,98092.38
2022-11-16T07:59:13.920Z,98100.19
2022-11-16T08:00:19.586Z,98084.88
2022-11-16T08:01:30.496Z,98094.44
2022-11-16T08:02:32.672Z,98094.53
2022-11-16T08:03:36.024Z,98084.25
2022-11-16T08:04:40.642Z,98089.09
2022-11-16T08:05:44.658Z,98080.31
2022-11-16T08:06:49.994Z,98081.00
2022-11-16T08:07:53.405Z,98092.63
2022-11-16T08:08:59.470Z,98094.53
2022-11-16T08:10:02.331Z,98100.94
2022-11-16T08:11:07.390Z,98105.25
2022-11-16T08:12:09.627Z,98107.97
2022-11-16T08:13:11.971Z,98105.25
2022-11-16T08:14:18.502Z,98104.09
2022-11-16T08:15:24.111Z,98100.84
2022-11-16T08:16:26.902Z,98101.84
2022-11-16T08:17:36.085Z,98103.66
2022-11-16T08:18:41.702Z,98102.16
2022-11-16T08:19:43.962Z,98099.03
2022-11-16T08:20:49.142Z,98104.19
2022-11-16T08:21:51.415Z,98094.31
2022-11-16T08:22:59.248Z,98101.63
2022-11-16T08:24:01.543Z,98093.75
2022-11-16T08:25:05.843Z,98095.75
2022-11-16T08:26:11.021Z,98091.69
2022-11-16T08:27:15.324Z,98089.22
2022-11-16T08:28:18.829Z,98090.50
2022-11-16T08:29:21.257Z,98090.28
2022-11-16T08:30:26.062Z,98097.91
2022-11-16T08:31:29.229Z,98091.06
2022-11-16T08:32:48.086Z,98102.91
2022-11-16T08:33:52.079Z,98097.31
2022-11-16T08:34:54.763Z,98097.13
2022-11-16T08:35:58.647Z,98090.59
2022-11-16T08:37:00.913Z,98092.75
2022-11-16T08:38:15.530Z,98091.34
2022-11-16T08:39:17.789Z,98096.00
2022-11-16T08:40:20.067Z,98093.13
2022-11-16T08:41:23.932Z,98092.06
2022-11-16T08:42:26.165Z,98093.13
2022-11-16T08:43:30.921Z,98084.75
2022-11-16T08:44:33.069Z,98090.09
2022-11-16T08:45:39.383Z,98090.41
2022-11-16T08:46:41.642Z,98101.91
2022-11-16T08:48:03.952Z,98100.66
2022-11-16T08:49:08.972Z,98099.69
2022-11-16T08:50:11.259Z,98104.31
2022-11-16T08:51:19.441Z,98108.41
2022-11-16T08:52:28.246Z,98095.78
2022-11-16T08:53:31.482Z,98109.69
2022-11-16T08:54:33.714Z,98106.53
2022-11-16T08:55:36.065Z,98100.09
2022-11-16T08:56:38.394Z,98104.53
2022-11-16T08:57:41.187Z,98100.22
2022-11-16T08:58:47.408Z,98122.34
2022-11-16T08:59:50.223Z,98116.31
2022-11-16T09:00:52.579Z,98115.03
2022-11-16T09:01:54.958Z,98115.38
2022-11-16T09:02:57.221Z,98119.59
2022-11-16T09:04:00.225Z,98117.69
2022-11-16T09:05:03.530Z,98121.72
2022-11-16T09:06:08.039Z,98118.31
2022-11-16T09:07:10.486Z,98117.38
2022-11-16T09:08:12.785Z,98122.63
2022-11-16T09:09:15.089Z,98122.78
2022-11-16T09:10:22.817Z,98123.81
2022-11-16T09:11:25.622Z,98112.81
2022-11-16T09:12:27.766Z,98119.34
2022-11-16T09:13:29.941Z,98117.44
2022-11-16T09:14:32.369Z,98113.63
2022-11-16T09:15:35.069Z,98106.66
2022-11-16T09:16:37.316Z,98110.75
2022-11-16T09:17:39.444Z,98108.44
2022-11-16T09:18:42.073Z,98102.69
2022-11-16T09:19:44.262Z,98114.75
2022-11-16T09:20:46.490Z,98100.88
2022-11-16T09:21:48.874Z,98107.25
2022-11-16T09:22:51.235Z,98109.06
2022-11-16T09:23:54.711Z,98111.69
2022-11-16T09:24:56.913Z,98114.00
2022-11-16T09:26:04.209Z,98101.38
2022-11-16T09:27:06.765Z,98120.06
2022-11-16T09:28:08.980Z,98114.38
2022-11-16T09:29:13.202Z,98120.50
2022-11-16T09:30:16.281Z,98121.22
2022-11-16T09:31:23.160Z,98119.19
2022-11-16T09:32:25.804Z,98120.59
2022-11-16T09:33:30.114Z,98131.88
2022-11-16T09:34:34.843Z,98129.53
2022-11-16T09:35:37.243Z,98116.28
2022-11-16T09:36:39.550Z,98126.09
2022-11-16T09:37:41.716Z,98125.06
2022-11-16T09:40:08.827Z,98137.25
2022-11-16T09:41:16.714Z,98137.22
2022-11-16T09:42:34.250Z,98131.13
2022-11-16T09:43:50.923Z,98135.06
2022-11-16T09:45:08.343Z,98140.34
2022-11-16T09:46:39.599Z,98130.19
2022-11-16T09:47:59.218Z,98127.22
2022-11-16T09:49:17.285Z,98132.63
2022-11-16T09:50:35.874Z,98133.47
2022-11-16T09:51:42.000Z,98135.75
2022-11-16T09:52:48.095Z,98137.06
2022-11-16T09:53:56.566Z,98138.75
2022-11-16T09:55:03.842Z,98142.47
2022-11-16T09:56:25.663Z,98149.91
2022-11-16T09:57:34.231Z,98145.16
2022-11-16T09:58:49.922Z,98148.03
2022-11-16T09:59:58.316Z,98144.09
2022-11-16T10:01:07.644Z,98155.28
2022-11-16T10:02:32.841Z,98143.63
2022-11-16T10:03:42.627Z,98146.00
2022-11-16T10:05:10.574Z,98144.31
2022-11-16T10:06:47.183Z,98147.69
2022-11-16T10:07:54.841Z,98150.28
2022-11-16T10:08:57.114Z,98147.44
2022-11-16T10:09:59.903Z,98146.00
2022-11-16T10:11:04.915Z,98144.44
2022-11-16T10:12:38.749Z,98143.38
2022-11-16T10:14:04.399Z,98137.84
2022-11-16T10:15:15.531Z,98141.91
2022-11-16T10:16:24.003Z,98125.69
2022-11-16T10:17:33.176Z,98123.84
2022-11-16T10:18:53.874Z,98125.63
2022-11-16T10:20:07.727Z,98124.25
2022-11-16T10:21:09.989Z,98130.91
2022-11-16T10:22:33.654Z,98128.09
2022-11-16T10:23:57.491Z,98134.88
2022-11-16T10:25:07.164Z,98126.72
2022-11-16T10:26:32.096Z,98125.75
2022-11-16T10:27:39.942Z,98126.47
2022-11-16T10:29:01.160Z,98121.50
2022-11-16T10:30:09.452Z,98124.97
2022-11-16T10:31:25.457Z,98119.03
2022-11-16T10:32:39.423Z,98128.47
2022-11-16T10:33:46.185Z,98118.22
2022-11-16T10:34:53.264Z,98126.50
2022-11-16T10:35:55.976Z,98119.72
2022-11-16T10:37:07.654Z,98127.97
2022-11-16T10:38:33.878Z,98128.69
2022-11-16T10:39:40.799Z,98123.19
2022-11-16T10:40:49.472Z,98111.19
2022-11-16T10:41:51.869Z,98116.38
2022-11-16T10:43:03.984Z,98116.66
2022-11-16T10:44:16.263Z,98124.50
2022-11-16T10:45:33.642Z,98124.16
2022-11-16T10:46:40.199Z,98115.13
2022-11-16T10:48:04.002Z,98119.75
2022-11-16T10:49:22.468Z,98117.78
2022-11-16T10:50:32.891Z,98121.09
2022-11-16T10:51:35.162Z,98118.16
2022-11-16T10:52:37.348Z,98112.94
2022-11-16T10:53:43.683Z,98115.94
2022-11-16T10:54:45.908Z,98102.69
2022-11-16T10:56:12.775Z,98108.00
2022-11-16T10:57:15.111Z,98104.72
2022-11-16T10:58:17.285Z,98100.19
2022-11-16T10:59:19.778Z,98108.00
2022-11-16T11:00:40.304Z,98108.00
2022-11-16T11:01:50.372Z,98102.09
2022-11-16T11:02:52.587Z,98099.94
2022-11-16T11:03:55.054Z,98110.06
2022-11-16T11:05:20.222Z,98113.06
2022-11-16T11:06:27.096Z,98107.03
2022-11-16T11:07:35.568Z,98102.47
2022-11-16T11:08:37.812Z,98109.38
2022-11-16T11:09:42.191Z,98097.38
2022-11-16T11:11:01.507Z,98109.03
2022-11-16T11:12:35.752Z,98113.78
2022-11-16T11:13:37.953Z,98108.88
2022-11-16T11:14:40.299Z,98112.19
2022-11-16T11:15:43.516Z,98105.59
2022-11-16T11:16:45.756Z,98107.03
2022-11-16T11:17:50.001Z,98103.44
2022-11-16T11:18:52.216Z,98101.75
2022-11-16T11:20:07.972Z,98110.63
2022-11-16T11:21:21.308Z,98107.75
2022-11-16T11:22:23.487Z,98097.41
2022-11-16T11:23:27.328Z,98108.00
2022-11-16T11:24:43.960Z,98098.84
2022-11-16T11:26:05.230Z,98102.09
2022-11-16T11:27:07.548Z,98085.63
2022-11-16T11:28:32.513Z,98086.84
2022-11-16T11:29:37.909Z,98094.19
2022-11-16T11:30:40.312Z,98082.75
2022-11-16T11:31:48.889Z,98092.59
2022-11-16T11:32:52.818Z,98095.28
2022-11-16T11:33:59.062Z,98096.69
2022-11-16T11:35:02.839Z,98095.97
2022-11-16T11:36:18.511Z,98100.19
2022-11-16T11:37:30.435Z,98090.78
2022-11-16T11:38:34.501Z,98092.44
2022-11-16T11:39:37.297Z,98098.75
2022-11-16T11:40:56.447Z,98098.44
2022-11-16T11:42:14.278Z,98099.03
2022-11-16T11:43:24.316Z,98104.13
2022-11-16T11:44:42.529Z,98099.34
2022-11-16T11:46:09.506Z,98093.31
2022-11-16T11:47:56.857Z,98097.03
2022-11-16T11:48:54.212Z,98097.81
2022-11-16T11:50:19.886Z,98098.38
2022-11-16T11:51:35.618Z,98094.94
2022-11-16T11:52:50.027Z,98100.28
2022-11-16T11:53:56.532Z,98084.69
2022-11-16T11:55:01.037Z,98095.00
2022-11-16T11:56:03.759Z,98087.56
2022-11-16T11:57:15.486Z,98092.34
2022-11-16T11:58:18.604Z,98090.31
2022-11-16T11:59:25.122Z,98080.00
2022-11-16T12:00:35.993Z,98086.69
2022-11-16T12:02:10.761Z,98084.56
2022-11-16T12:03:38.281Z,98080.50
2022-11-16T12:04:40.405Z,98076.22
2022-11-16T12:05:47.630Z,98073.81
2022-11-16T12:07:05.403Z,98074.22
2022-11-16T12:08:38.463Z,98072.88
2022-11-16T12:09:46.289Z,98078.75
2022-11-16T12:11:00.324Z,98077.81
2022-11-16T12:12:24.322Z,98075.53
2022-11-16T12:13:44.784Z,98075.06
2022-11-16T12:14:58.409Z,98067.59
2022-11-16T12:16:26.743Z,98074.22
2022-11-16T12:17:43.259Z,98070.41
2022-11-16T12:18:57.180Z,98067.06
2022-11-16T12:20:08.543Z,98072.88
2022-11-16T12:21:17.747Z,98066.00
2022-11-16T12:22:57.452Z,98066.97
2022-11-16T12:24:24.951Z,98069.81
2022-11-16T12:25:56.095Z,98064.84
2022-11-16T12:27:26.825Z,98061.25
2022-11-16T12:28:51.021Z,98062.13
2022-11-16T12:29:53.501Z,98063.09
2022-11-16T12:31:27.193Z,98068.50
2022-11-16T12:32:41.054Z,98066.34
2022-11-16T12:33:45.769Z,98060.47
2022-11-16T12:34:59.795Z,98062.94
2022-11-16T12:36:21.198Z,98054.31
2022-11-16T12:37:35.343Z,98062.34
2022-11-16T12:38:54.950Z,98057.81
2022-11-16T12:40:27.904Z,98053.69
2022-11-16T12:41:48.422Z,98052.19
2022-11-16T12:43:21.093Z,98051.31
2022-11-16T12:44:34.587Z,98051.22
2022-11-16T12:46:17.136Z,98052.63
2022-11-16T12:47:25.944Z,98058.97
2022-11-16T12:48:59.155Z,98060.91
2022-11-16T12:50:01.255Z,98059.41
2022-11-16T12:51:16.143Z,98051.75
2022-11-16T12:52:44.977Z,98049.88
2022-11-16T12:54:13.894Z,98041.50
2022-11-16T12:55:37.882Z,98041.34
2022-11-16T12:57:01.659Z,98040.50
2022-11-16T12:58:26.226Z,98031.94
2022-11-16T12:59:46.415Z,98033.59
2022-11-16T13:01:12.189Z,98025.06
2022-11-16T13:02:23.092Z,98028.72
2022-11-16T13:03:35.842Z,98028.56
2022-11-16T13:04:45.739Z,98031.00
2022-11-16T13:06:09.986Z,98019.84
2022-11-16T13:07:12.138Z,98028.97
2022-11-16T13:08:37.041Z,98022.63
2022-11-16T13:09:48.792Z,98035.81
2022-11-16T13:11:07.762Z,98028.34
2022-11-16T13:12:17.051Z,98031.81
2022-11-16T13:13:41.451Z,98020.28
2022-11-16T13:14:49.607Z,98016.09
2022-11-16T13:15:53.010Z,98023.19
2022-11-16T13:16:57.052Z,98017.66
2022-11-16T13:18:02.371Z,98029.66
2022-11-16T13:19:10.106Z,98022.31
2022-11-16T13:20:32.433Z,98024.25
2022-11-16T13:21:55.089Z,98025.06
2022-11-16T13:23:09.994Z,98023.38
2022-11-16T13:24:30.689Z,98022.09
2022-11-16T13:25:53.811Z,98023.88
2022-11-16T13:27:24.182Z,98019.09
2022-11-16T13:28:38.383Z,98016.13
2022-11-16T13:29:51.744Z,98026.72
2022-11-16T13:31:20.841Z,98018.34
2022-11-16T13:32:32.944Z,98021.19